sensor_id;sensor_type;location;lat;lon;timestamp;P1;durP1;ratioP1;P2;durP2;ratioP2
28762;SDS011;15918;51.270;6.522;2024-02-26T00:02:20;4.85;;;2.42;;
28762;SDS011;15918;51.270;6.522;2024-02-26T00:04:46;2.47;;;2.08;;
28762;SDS011;15918;51.270;6.522;2024-02-26T00:07:11;2.95;;;2.13;;
28762;SDS011;15918;51.270;6.522;2024-02-26T00:09:37;4.15;;;2.40;;
28762;SDS011;15918;51.270;6.522;2024-02-26T00:12:03;2.55;;;1.95;;
28762;SDS011;15918;51.270;6.522;2024-02-26T00:14:29;3.00;;;1.95;;
28762;SDS011;15918;51.270;6.522;2024-02-26T00:16:55;3.50;;;1.95;;
28762;SDS011;15918;51.270;6.522;2024-02-26T00:19:20;2.42;;;2.00;;
28762;SDS011;15918;51.270;6.522;2024-02-26T00:21:46;2.63;;;2.17;;
28762;SDS011;15918;51.270;6.522;2024-02-26T00:24:12;3.33;;;2.30;;
28762;SDS011;15918;51.270;6.522;2024-02-26T00:26:37;2.00;;;1.80;;
28762;SDS011;15918;51.270;6.522;2024-02-26T00:29:03;2.88;;;2.33;;
28762;SDS011;15918;51.270;6.522;2024-02-26T00:31:28;3.05;;;2.10;;
28762;SDS011;15918;51.270;6.522;2024-02-26T00:33:54;2.47;;;1.90;;
28762;SDS011;15918;51.270;6.522;2024-02-26T00:36:19;3.20;;;2.17;;
28762;SDS011;15918;51.270;6.522;2024-02-26T00:38:45;3.65;;;2.17;;
28762;SDS011;15918;51.270;6.522;2024-02-26T00:41:15;3.42;;;2.40;;
28762;SDS011;15918;51.270;6.522;2024-02-26T00:43:41;3.92;;;2.42;;
28762;SDS011;15918;51.270;6.522;2024-02-26T00:46:07;2.20;;;1.90;;
28762;SDS011;15918;51.270;6.522;2024-02-26T00:48:33;3.30;;;2.10;;
28762;SDS011;15918;51.270;6.522;2024-02-26T00:50:58;2.95;;;2.20;;
28762;SDS011;15918;51.270;6.522;2024-02-26T00:53:24;3.22;;;2.10;;
28762;SDS011;15918;51.270;6.522;2024-02-26T00:55:50;3.70;;;1.92;;
28762;SDS011;15918;51.270;6.522;2024-02-26T00:58:16;2.70;;;2.42;;
28762;SDS011;15918;51.270;6.522;2024-02-26T01:00:41;4.47;;;2.60;;
28762;SDS011;15918;51.270;6.522;2024-02-26T01:03:07;2.25;;;2.05;;
28762;SDS011;15918;51.270;6.522;2024-02-26T01:05:33;2.10;;;1.90;;
28762;SDS011;15918;51.270;6.522;2024-02-26T01:07:58;2.75;;;2.15;;
28762;SDS011;15918;51.270;6.522;2024-02-26T01:10:24;2.33;;;2.10;;
28762;SDS011;15918;51.270;6.522;2024-02-26T01:12:50;4.53;;;2.17;;
28762;SDS011;15918;51.270;6.522;2024-02-26T01:15:15;2.08;;;1.70;;
28762;SDS011;15918;51.270;6.522;2024-02-26T01:17:41;4.82;;;2.20;;
28762;SDS011;15918;51.270;6.522;2024-02-26T01:20:07;2.33;;;2.08;;
28762;SDS011;15918;51.270;6.522;2024-02-26T01:22:34;5.28;;;2.67;;
28762;SDS011;15918;51.270;6.522;2024-02-26T01:24:59;5.05;;;2.05;;
28762;SDS011;15918;51.270;6.522;2024-02-26T01:27:25;2.72;;;2.30;;
28762;SDS011;15918;51.270;6.522;2024-02-26T01:29:52;2.72;;;1.98;;
28762;SDS011;15918;51.270;6.522;2024-02-26T01:32:17;3.40;;;2.10;;
28762;SDS011;15918;51.270;6.522;2024-02-26T01:34:44;2.75;;;2.20;;
28762;SDS011;15918;51.270;6.522;2024-02-26T01:37:10;2.40;;;2.03;;
28762;SDS011;15918;51.270;6.522;2024-02-26T01:39:36;3.35;;;2.28;;
28762;SDS011;15918;51.270;6.522;2024-02-26T01:42:01;3.85;;;2.60;;
28762;SDS011;15918;51.270;6.522;2024-02-26T01:44:27;3.00;;;2.35;;
28762;SDS011;15918;51.270;6.522;2024-02-26T01:46:53;3.25;;;2.42;;
28762;SDS011;15918;51.270;6.522;2024-02-26T01:49:19;3.00;;;2.47;;
28762;SDS011;15918;51.270;6.522;2024-02-26T01:51:45;4.60;;;2.58;;
28762;SDS011;15918;51.270;6.522;2024-02-26T01:54:11;4.75;;;2.88;;
28762;SDS011;15918;51.270;6.522;2024-02-26T01:56:37;6.80;;;3.55;;
28762;SDS011;15918;51.270;6.522;2024-02-26T01:59:05;4.95;;;3.00;;
28762;SDS011;15918;51.270;6.522;2024-02-26T02:01:32;2.58;;;2.38;;
28762;SDS011;15918;51.270;6.522;2024-02-26T02:03:59;3.78;;;2.67;;
28762;SDS011;15918;51.270;6.522;2024-02-26T02:06:25;3.60;;;2.72;;
28762;SDS011;15918;51.270;6.522;2024-02-26T02:08:52;3.35;;;2.63;;
28762;SDS011;15918;51.270;6.522;2024-02-26T02:11:19;4.22;;;2.63;;
28762;SDS011;15918;51.270;6.522;2024-02-26T02:13:45;4.22;;;2.65;;
28762;SDS011;15918;51.270;6.522;2024-02-26T02:16:11;2.45;;;2.15;;
28762;SDS011;15918;51.270;6.522;2024-02-26T02:18:37;3.17;;;2.30;;
28762;SDS011;15918;51.270;6.522;2024-02-26T02:21:03;3.83;;;2.65;;
28762;SDS011;15918;51.270;6.522;2024-02-26T02:23:28;3.88;;;2.20;;
28762;SDS011;15918;51.270;6.522;2024-02-26T02:25:54;3.92;;;2.63;;
28762;SDS011;15918;51.270;6.522;2024-02-26T02:28:22;3.22;;;2.08;;
28762;SDS011;15918;51.270;6.522;2024-02-26T02:30:50;2.53;;;2.33;;
28762;SDS011;15918;51.270;6.522;2024-02-26T02:33:15;2.95;;;2.53;;
28762;SDS011;15918;51.270;6.522;2024-02-26T02:35:42;2.35;;;2.08;;
28762;SDS011;15918;51.270;6.522;2024-02-26T02:38:07;2.97;;;2.28;;
28762;SDS011;15918;51.270;6.522;2024-02-26T02:40:33;3.53;;;2.20;;
28762;SDS011;15918;51.270;6.522;2024-02-26T02:42:59;3.42;;;2.20;;
28762;SDS011;15918;51.270;6.522;2024-02-26T02:45:26;2.17;;;1.80;;
28762;SDS011;15918;51.270;6.522;2024-02-26T02:47:52;2.33;;;1.90;;
28762;SDS011;15918;51.270;6.522;2024-02-26T02:50:18;2.90;;;1.70;;
28762;SDS011;15918;51.270;6.522;2024-02-26T02:52:44;4.00;;;2.38;;
28762;SDS011;15918;51.270;6.522;2024-02-26T02:55:09;2.63;;;1.98;;
28762;SDS011;15918;51.270;6.522;2024-02-26T02:57:35;2.35;;;1.65;;
28762;SDS011;15918;51.270;6.522;2024-02-26T03:00:09;2.00;;;1.73;;
28762;SDS011;15918;51.270;6.522;2024-02-26T03:02:35;2.45;;;1.52;;
28762;SDS011;15918;51.270;6.522;2024-02-26T03:05:01;2.40;;;1.65;;
28762;SDS011;15918;51.270;6.522;2024-02-26T03:07:30;3.75;;;1.90;;
28762;SDS011;15918;51.270;6.522;2024-02-26T03:09:55;3.50;;;2.00;;
28762;SDS011;15918;51.270;6.522;2024-02-26T03:12:21;2.05;;;1.85;;
28762;SDS011;15918;51.270;6.522;2024-02-26T03:14:46;1.98;;;1.80;;
28762;SDS011;15918;51.270;6.522;2024-02-26T03:17:12;2.47;;;1.77;;
28762;SDS011;15918;51.270;6.522;2024-02-26T03:19:37;1.80;;;1.65;;
28762;SDS011;15918;51.270;6.522;2024-02-26T03:22:03;2.38;;;1.88;;
28762;SDS011;15918;51.270;6.522;2024-02-26T03:24:29;2.83;;;2.15;;
28762;SDS011;15918;51.270;6.522;2024-02-26T03:26:54;3.00;;;1.90;;
28762;SDS011;15918;51.270;6.522;2024-02-26T03:29:20;3.35;;;2.45;;
28762;SDS011;15918;51.270;6.522;2024-02-26T03:31:46;3.00;;;2.03;;
28762;SDS011;15918;51.270;6.522;2024-02-26T03:34:11;3.78;;;2.53;;
28762;SDS011;15918;51.270;6.522;2024-02-26T03:36:38;2.78;;;2.50;;
28762;SDS011;15918;51.270;6.522;2024-02-26T03:39:04;2.53;;;2.17;;
28762;SDS011;15918;51.270;6.522;2024-02-26T03:41:33;2.55;;;2.10;;
28762;SDS011;15918;51.270;6.522;2024-02-26T03:43:59;4.40;;;2.67;;
28762;SDS011;15918;51.270;6.522;2024-02-26T03:46:25;3.70;;;2.10;;
28762;SDS011;15918;51.270;6.522;2024-02-26T03:48:51;4.57;;;2.65;;
28762;SDS011;15918;51.270;6.522;2024-02-26T03:51:16;2.97;;;2.50;;
28762;SDS011;15918;51.270;6.522;2024-02-26T03:53:42;2.80;;;2.47;;
28762;SDS011;15918;51.270;6.522;2024-02-26T03:56:08;3.22;;;2.30;;
28762;SDS011;15918;51.270;6.522;2024-02-26T03:58:36;3.67;;;2.17;;
28762;SDS011;15918;51.270;6.522;2024-02-26T04:01:01;3.65;;;2.42;;
28762;SDS011;15918;51.270;6.522;2024-02-26T04:03:27;3.20;;;2.00;;
28762;SDS011;15918;51.270;6.522;2024-02-26T04:05:53;3.15;;;2.03;;
28762;SDS011;15918;51.270;6.522;2024-02-26T04:08:18;2.35;;;2.15;;
28762;SDS011;15918;51.270;6.522;2024-02-26T04:10:44;3.15;;;2.00;;
28762;SDS011;15918;51.270;6.522;2024-02-26T04:13:10;3.25;;;2.40;;
28762;SDS011;15918;51.270;6.522;2024-02-26T04:15:35;3.08;;;2.00;;
28762;SDS011;15918;51.270;6.522;2024-02-26T04:18:01;2.28;;;1.85;;
28762;SDS011;15918;51.270;6.522;2024-02-26T04:20:27;5.93;;;2.13;;
28762;SDS011;15918;51.270;6.522;2024-02-26T04:22:53;3.28;;;2.08;;
28762;SDS011;15918;51.270;6.522;2024-02-26T04:25:18;2.55;;;2.03;;
28762;SDS011;15918;51.270;6.522;2024-02-26T04:27:44;2.72;;;2.33;;
28762;SDS011;15918;51.270;6.522;2024-02-26T04:30:10;3.38;;;2.30;;
28762;SDS011;15918;51.270;6.522;2024-02-26T04:32:36;3.70;;;2.30;;
28762;SDS011;15918;51.270;6.522;2024-02-26T04:35:02;4.97;;;3.05;;
28762;SDS011;15918;51.270;6.522;2024-02-26T04:37:28;5.50;;;2.70;;
28762;SDS011;15918;51.270;6.522;2024-02-26T04:39:58;3.50;;;2.45;;
28762;SDS011;15918;51.270;6.522;2024-02-26T04:42:24;3.47;;;2.65;;
28762;SDS011;15918;51.270;6.522;2024-02-26T04:44:49;5.03;;;2.92;;
28762;SDS011;15918;51.270;6.522;2024-02-26T04:47:15;3.85;;;3.20;;
28762;SDS011;15918;51.270;6.522;2024-02-26T04:49:40;4.72;;;3.08;;
28762;SDS011;15918;51.270;6.522;2024-02-26T04:52:06;4.80;;;3.15;;
28762;SDS011;15918;51.270;6.522;2024-02-26T04:54:32;4.20;;;3.13;;
28762;SDS011;15918;51.270;6.522;2024-02-26T04:56:57;5.07;;;3.55;;
28762;SDS011;15918;51.270;6.522;2024-02-26T04:59:23;3.65;;;3.00;;
28762;SDS011;15918;51.270;6.522;2024-02-26T05:01:49;4.65;;;3.15;;
28762;SDS011;15918;51.270;6.522;2024-02-26T05:04:16;4.25;;;3.20;;
28762;SDS011;15918;51.270;6.522;2024-02-26T05:06:42;4.45;;;2.72;;
28762;SDS011;15918;51.270;6.522;2024-02-26T05:09:07;4.70;;;3.13;;
28762;SDS011;15918;51.270;6.522;2024-02-26T05:11:33;6.18;;;3.08;;
28762;SDS011;15918;51.270;6.522;2024-02-26T05:14:00;7.82;;;3.22;;
28762;SDS011;15918;51.270;6.522;2024-02-26T05:16:26;4.18;;;3.00;;
28762;SDS011;15918;51.270;6.522;2024-02-26T05:18:52;3.92;;;2.97;;
28762;SDS011;15918;51.270;6.522;2024-02-26T05:21:18;3.58;;;2.97;;
28762;SDS011;15918;51.270;6.522;2024-02-26T05:23:43;3.90;;;2.83;;
28762;SDS011;15918;51.270;6.522;2024-02-26T05:26:10;2.80;;;2.58;;
28762;SDS011;15918;51.270;6.522;2024-02-26T05:28:35;4.40;;;3.30;;
28762;SDS011;15918;51.270;6.522;2024-02-26T05:31:04;3.05;;;2.72;;
28762;SDS011;15918;51.270;6.522;2024-02-26T05:33:30;5.53;;;3.10;;
28762;SDS011;15918;51.270;6.522;2024-02-26T05:35:55;3.88;;;2.97;;
28762;SDS011;15918;51.270;6.522;2024-02-26T05:38:21;3.65;;;3.08;;
28762;SDS011;15918;51.270;6.522;2024-02-26T05:40:47;3.45;;;3.15;;
28762;SDS011;15918;51.270;6.522;2024-02-26T05:43:12;3.33;;;2.90;;
28762;SDS011;15918;51.270;6.522;2024-02-26T05:45:40;5.13;;;3.60;;
28762;SDS011;15918;51.270;6.522;2024-02-26T05:48:06;4.78;;;3.40;;
28762;SDS011;15918;51.270;6.522;2024-02-26T05:50:32;4.35;;;3.40;;
28762;SDS011;15918;51.270;6.522;2024-02-26T05:52:57;4.10;;;3.47;;
28762;SDS011;15918;51.270;6.522;2024-02-26T05:55:23;4.53;;;3.50;;
28762;SDS011;15918;51.270;6.522;2024-02-26T05:57:48;3.22;;;3.03;;
28762;SDS011;15918;51.270;6.522;2024-02-26T06:00:14;3.45;;;3.15;;
28762;SDS011;15918;51.270;6.522;2024-02-26T06:02:40;3.90;;;3.20;;
28762;SDS011;15918;51.270;6.522;2024-02-26T06:05:06;3.72;;;2.80;;
28762;SDS011;15918;51.270;6.522;2024-02-26T06:07:33;4.13;;;2.92;;
28762;SDS011;15918;51.270;6.522;2024-02-26T06:09:59;3.90;;;3.05;;
28762;SDS011;15918;51.270;6.522;2024-02-26T06:12:25;3.53;;;2.85;;
28762;SDS011;15918;51.270;6.522;2024-02-26T06:14:53;3.58;;;2.90;;
28762;SDS011;15918;51.270;6.522;2024-02-26T06:17:19;3.40;;;3.10;;
28762;SDS011;15918;51.270;6.522;2024-02-26T06:19:44;3.05;;;2.75;;
28762;SDS011;15918;51.270;6.522;2024-02-26T06:22:10;4.57;;;2.60;;
28762;SDS011;15918;51.270;6.522;2024-02-26T06:24:36;5.47;;;2.95;;
28762;SDS011;15918;51.270;6.522;2024-02-26T06:27:02;4.35;;;2.88;;
28762;SDS011;15918;51.270;6.522;2024-02-26T06:29:28;3.90;;;2.72;;
28762;SDS011;15918;51.270;6.522;2024-02-26T06:31:53;4.68;;;2.60;;
28762;SDS011;15918;51.270;6.522;2024-02-26T06:34:19;3.78;;;2.80;;
28762;SDS011;15918;51.270;6.522;2024-02-26T06:36:45;3.60;;;3.00;;
28762;SDS011;15918;51.270;6.522;2024-02-26T06:39:11;3.97;;;2.88;;
28762;SDS011;15918;51.270;6.522;2024-02-26T06:41:37;4.13;;;2.90;;
28762;SDS011;15918;51.270;6.522;2024-02-26T06:44:04;6.18;;;2.67;;
28762;SDS011;15918;51.270;6.522;2024-02-26T06:46:30;3.35;;;3.05;;
28762;SDS011;15918;51.270;6.522;2024-02-26T06:48:56;3.20;;;2.83;;
28762;SDS011;15918;51.270;6.522;2024-02-26T06:51:22;3.22;;;2.92;;
28762;SDS011;15918;51.270;6.522;2024-02-26T06:53:48;3.35;;;2.42;;
28762;SDS011;15918;51.270;6.522;2024-02-26T06:56:14;3.97;;;2.75;;
28762;SDS011;15918;51.270;6.522;2024-02-26T06:58:40;3.17;;;2.63;;
28762;SDS011;15918;51.270;6.522;2024-02-26T07:01:05;4.70;;;3.58;;
28762;SDS011;15918;51.270;6.522;2024-02-26T07:03:33;3.35;;;3.05;;
28762;SDS011;15918;51.270;6.522;2024-02-26T07:05:59;3.28;;;2.97;;
28762;SDS011;15918;51.270;6.522;2024-02-26T07:08:24;3.50;;;2.95;;
28762;SDS011;15918;51.270;6.522;2024-02-26T07:10:50;2.90;;;2.70;;
28762;SDS011;15918;51.270;6.522;2024-02-26T07:13:16;3.95;;;3.55;;
28762;SDS011;15918;51.270;6.522;2024-02-26T07:15:41;3.50;;;3.20;;
28762;SDS011;15918;51.270;6.522;2024-02-26T07:18:07;3.38;;;3.08;;
28762;SDS011;15918;51.270;6.522;2024-02-26T07:20:32;3.42;;;3.00;;
28762;SDS011;15918;51.270;6.522;2024-02-26T07:22:58;4.35;;;3.10;;
28762;SDS011;15918;51.270;6.522;2024-02-26T07:25:23;7.22;;;3.50;;
28762;SDS011;15918;51.270;6.522;2024-02-26T07:27:50;8.80;;;4.32;;
28762;SDS011;15918;51.270;6.522;2024-02-26T07:30:15;5.20;;;4.70;;
28762;SDS011;15918;51.270;6.522;2024-02-26T07:32:42;5.53;;;4.13;;
28762;SDS011;15918;51.270;6.522;2024-02-26T07:35:08;4.72;;;4.20;;
28762;SDS011;15918;51.270;6.522;2024-02-26T07:37:33;4.35;;;3.90;;
28762;SDS011;15918;51.270;6.522;2024-02-26T07:39:59;4.72;;;3.88;;
28762;SDS011;15918;51.270;6.522;2024-02-26T07:42:25;3.70;;;3.40;;
28762;SDS011;15918;51.270;6.522;2024-02-26T07:44:51;4.10;;;3.42;;
28762;SDS011;15918;51.270;6.522;2024-02-26T07:47:17;5.63;;;3.78;;
28762;SDS011;15918;51.270;6.522;2024-02-26T07:49:43;5.32;;;3.33;;
28762;SDS011;15918;51.270;6.522;2024-02-26T07:52:09;4.80;;;3.72;;
28762;SDS011;15918;51.270;6.522;2024-02-26T07:54:34;3.92;;;3.50;;
28762;SDS011;15918;51.270;6.522;2024-02-26T07:57:00;5.30;;;4.10;;
28762;SDS011;15918;51.270;6.522;2024-02-26T07:59:26;3.55;;;3.15;;
28762;SDS011;15918;51.270;6.522;2024-02-26T08:01:51;4.60;;;3.90;;
28762;SDS011;15918;51.270;6.522;2024-02-26T08:04:17;4.57;;;3.72;;
28762;SDS011;15918;51.270;6.522;2024-02-26T08:06:43;5.72;;;3.80;;
28762;SDS011;15918;51.270;6.522;2024-02-26T08:09:09;4.50;;;3.75;;
28762;SDS011;15918;51.270;6.522;2024-02-26T08:11:34;3.47;;;3.05;;
28762;SDS011;15918;51.270;6.522;2024-02-26T08:14:00;3.50;;;3.13;;
28762;SDS011;15918;51.270;6.522;2024-02-26T08:16:26;4.93;;;3.65;;
28762;SDS011;15918;51.270;6.522;2024-02-26T08:18:52;5.97;;;3.63;;
28762;SDS011;15918;51.270;6.522;2024-02-26T08:21:18;5.05;;;3.78;;
28762;SDS011;15918;51.270;6.522;2024-02-26T08:23:43;4.25;;;3.40;;
28762;SDS011;15918;51.270;6.522;2024-02-26T08:26:09;3.60;;;3.28;;
28762;SDS011;15918;51.270;6.522;2024-02-26T08:28:36;3.65;;;3.13;;
28762;SDS011;15918;51.270;6.522;2024-02-26T08:31:02;5.07;;;3.55;;
28762;SDS011;15918;51.270;6.522;2024-02-26T08:33:28;4.15;;;3.08;;
28762;SDS011;15918;51.270;6.522;2024-02-26T08:35:54;3.38;;;3.08;;
28762;SDS011;15918;51.270;6.522;2024-02-26T08:38:20;5.57;;;3.45;;
28762;SDS011;15918;51.270;6.522;2024-02-26T08:40:46;3.60;;;3.00;;
28762;SDS011;15918;51.270;6.522;2024-02-26T08:43:11;3.40;;;3.00;;
28762;SDS011;15918;51.270;6.522;2024-02-26T08:45:37;3.35;;;3.05;;
28762;SDS011;15918;51.270;6.522;2024-02-26T08:48:03;3.83;;;3.08;;
28762;SDS011;15918;51.270;6.522;2024-02-26T08:50:28;4.00;;;3.08;;
28762;SDS011;15918;51.270;6.522;2024-02-26T08:52:54;3.33;;;3.03;;
28762;SDS011;15918;51.270;6.522;2024-02-26T08:55:19;3.97;;;3.22;;
28762;SDS011;15918;51.270;6.522;2024-02-26T08:57:45;3.05;;;2.75;;
28762;SDS011;15918;51.270;6.522;2024-02-26T09:00:11;4.70;;;3.20;;
28762;SDS011;15918;51.270;6.522;2024-02-26T09:02:37;3.78;;;3.25;;
28762;SDS011;15918;51.270;6.522;2024-02-26T09:05:07;4.65;;;3.30;;
28762;SDS011;15918;51.270;6.522;2024-02-26T09:07:33;5.15;;;3.15;;
28762;SDS011;15918;51.270;6.522;2024-02-26T09:09:58;4.93;;;3.40;;
28762;SDS011;15918;51.270;6.522;2024-02-26T09:12:24;4.00;;;3.60;;
28762;SDS011;15918;51.270;6.522;2024-02-26T09:14:49;5.15;;;3.63;;
28762;SDS011;15918;51.270;6.522;2024-02-26T09:17:15;4.18;;;2.90;;
28762;SDS011;15918;51.270;6.522;2024-02-26T09:19:41;3.63;;;2.85;;
28762;SDS011;15918;51.270;6.522;2024-02-26T09:22:07;3.80;;;2.88;;
28762;SDS011;15918;51.270;6.522;2024-02-26T09:24:32;3.78;;;3.38;;
28762;SDS011;15918;51.270;6.522;2024-02-26T09:26:58;3.35;;;3.05;;
28762;SDS011;15918;51.270;6.522;2024-02-26T09:29:24;4.00;;;3.30;;
28762;SDS011;15918;51.270;6.522;2024-02-26T09:31:51;3.08;;;2.80;;
28762;SDS011;15918;51.270;6.522;2024-02-26T09:34:17;4.30;;;3.58;;
28762;SDS011;15918;51.270;6.522;2024-02-26T09:36:43;4.72;;;3.50;;
28762;SDS011;15918;51.270;6.522;2024-02-26T09:39:08;5.32;;;3.53;;
28762;SDS011;15918;51.270;6.522;2024-02-26T09:41:36;4.05;;;3.42;;
28762;SDS011;15918;51.270;6.522;2024-02-26T09:44:02;4.18;;;3.60;;
28762;SDS011;15918;51.270;6.522;2024-02-26T09:46:30;5.65;;;3.75;;
28762;SDS011;15918;51.270;6.522;2024-02-26T09:48:56;4.28;;;3.50;;
28762;SDS011;15918;51.270;6.522;2024-02-26T09:51:22;6.25;;;3.70;;
28762;SDS011;15918;51.270;6.522;2024-02-26T09:53:52;4.40;;;3.55;;
28762;SDS011;15918;51.270;6.522;2024-02-26T09:56:18;4.55;;;3.83;;
28762;SDS011;15918;51.270;6.522;2024-02-26T09:58:44;4.03;;;3.65;;
28762;SDS011;15918;51.270;6.522;2024-02-26T10:01:16;5.18;;;3.88;;
28762;SDS011;15918;51.270;6.522;2024-02-26T10:03:43;4.25;;;3.90;;
28762;SDS011;15918;51.270;6.522;2024-02-26T10:06:10;4.75;;;3.72;;
28762;SDS011;15918;51.270;6.522;2024-02-26T10:08:36;5.05;;;4.10;;
28762;SDS011;15918;51.270;6.522;2024-02-26T10:11:04;4.70;;;4.22;;
28762;SDS011;15918;51.270;6.522;2024-02-26T10:13:30;5.57;;;4.50;;
28762;SDS011;15918;51.270;6.522;2024-02-26T10:15:55;5.30;;;4.80;;
28762;SDS011;15918;51.270;6.522;2024-02-26T10:18:22;6.60;;;5.43;;
28762;SDS011;15918;51.270;6.522;2024-02-26T10:20:58;5.55;;;4.88;;
28762;SDS011;15918;51.270;6.522;2024-02-26T10:23:27;5.22;;;4.72;;
28762;SDS011;15918;51.270;6.522;2024-02-26T10:25:56;6.93;;;5.15;;
28762;SDS011;15918;51.270;6.522;2024-02-26T10:28:22;6.53;;;5.45;;
28762;SDS011;15918;51.270;6.522;2024-02-26T10:30:48;6.60;;;5.78;;
28762;SDS011;15918;51.270;6.522;2024-02-26T10:33:14;6.32;;;4.95;;
28762;SDS011;15918;51.270;6.522;2024-02-26T10:35:40;6.45;;;5.22;;
28762;SDS011;15918;51.270;6.522;2024-02-26T10:38:10;5.93;;;4.95;;
28762;SDS011;15918;51.270;6.522;2024-02-26T10:40:36;5.22;;;4.72;;
28762;SDS011;15918;51.270;6.522;2024-02-26T10:43:02;5.95;;;5.05;;
28762;SDS011;15918;51.270;6.522;2024-02-26T10:45:28;6.03;;;5.20;;
28762;SDS011;15918;51.270;6.522;2024-02-26T10:47:53;6.45;;;5.80;;
28762;SDS011;15918;51.270;6.522;2024-02-26T10:50:19;6.30;;;5.70;;
28762;SDS011;15918;51.270;6.522;2024-02-26T10:52:45;7.55;;;6.45;;
28762;SDS011;15918;51.270;6.522;2024-02-26T10:55:13;6.15;;;5.65;;
28762;SDS011;15918;51.270;6.522;2024-02-26T10:57:43;7.13;;;6.40;;
28762;SDS011;15918;51.270;6.522;2024-02-26T11:00:10;7.38;;;6.65;;
28762;SDS011;15918;51.270;6.522;2024-02-26T11:02:40;7.75;;;6.85;;
28762;SDS011;15918;51.270;6.522;2024-02-26T11:05:06;7.07;;;6.38;;
28762;SDS011;15918;51.270;6.522;2024-02-26T11:07:34;8.32;;;6.50;;
28762;SDS011;15918;51.270;6.522;2024-02-26T11:10:02;6.60;;;5.90;;
28762;SDS011;15918;51.270;6.522;2024-02-26T11:12:29;9.10;;;6.70;;
28762;SDS011;15918;51.270;6.522;2024-02-26T11:14:56;9.10;;;6.40;;
28762;SDS011;15918;51.270;6.522;2024-02-26T11:17:25;6.30;;;5.70;;
28762;SDS011;15918;51.270;6.522;2024-02-26T11:19:55;7.20;;;6.60;;
28762;SDS011;15918;51.270;6.522;2024-02-26T11:22:21;8.48;;;6.03;;
28762;SDS011;15918;51.270;6.522;2024-02-26T11:24:51;6.30;;;5.70;;
28762;SDS011;15918;51.270;6.522;2024-02-26T11:27:17;6.68;;;5.85;;
28762;SDS011;15918;51.270;6.522;2024-02-26T11:29:47;8.07;;;6.65;;
28762;SDS011;15918;51.270;6.522;2024-02-26T11:32:15;6.45;;;5.85;;
28762;SDS011;15918;51.270;6.522;2024-02-26T11:34:41;7.35;;;6.57;;
28762;SDS011;15918;51.270;6.522;2024-02-26T11:37:14;8.23;;;6.72;;
28762;SDS011;15918;51.270;6.522;2024-02-26T11:39:41;7.85;;;7.15;;
28762;SDS011;15918;51.270;6.522;2024-02-26T11:42:09;7.93;;;7.03;;
28762;SDS011;15918;51.270;6.522;2024-02-26T11:44:38;6.82;;;6.13;;
28762;SDS011;15918;51.270;6.522;2024-02-26T11:47:20;7.65;;;6.60;;
28762;SDS011;15918;51.270;6.522;2024-02-26T11:49:47;8.15;;;7.10;;
28762;SDS011;15918;51.270;6.522;2024-02-26T11:52:14;8.80;;;7.90;;
28762;SDS011;15918;51.270;6.522;2024-02-26T11:57:27;8.52;;;7.63;;
28762;SDS011;15918;51.270;6.522;2024-02-26T12:05:26;8.35;;;7.55;;
28762;SDS011;15918;51.270;6.522;2024-02-26T12:08:03;10.60;;;8.70;;
28762;SDS011;15918;51.270;6.522;2024-02-26T12:10:33;10.77;;;7.90;;
28762;SDS011;15918;51.270;6.522;2024-02-26T12:13:05;9.45;;;8.25;;
28762;SDS011;15918;51.270;6.522;2024-02-26T12:15:42;8.65;;;7.60;;
28762;SDS011;15918;51.270;6.522;2024-02-26T12:18:10;8.55;;;7.68;;
28762;SDS011;15918;51.270;6.522;2024-02-26T12:20:40;8.77;;;7.78;;
28762;SDS011;15918;51.270;6.522;2024-02-26T12:23:06;9.38;;;7.47;;
28762;SDS011;15918;51.270;6.522;2024-02-26T12:25:32;9.13;;;8.15;;
28762;SDS011;15918;51.270;6.522;2024-02-26T12:27:58;8.90;;;7.85;;
28762;SDS011;15918;51.270;6.522;2024-02-26T12:30:25;8.55;;;7.75;;
28762;SDS011;15918;51.270;6.522;2024-02-26T12:32:51;9.15;;;7.93;;
28762;SDS011;15918;51.270;6.522;2024-02-26T12:35:22;9.10;;;8.18;;
28762;SDS011;15918;51.270;6.522;2024-02-26T12:37:48;9.82;;;8.82;;
28762;SDS011;15918;51.270;6.522;2024-02-26T12:40:16;9.30;;;8.43;;
28762;SDS011;15918;51.270;6.522;2024-02-26T12:42:43;10.45;;;8.35;;
28762;SDS011;15918;51.270;6.522;2024-02-26T12:45:09;9.50;;;8.50;;
28762;SDS011;15918;51.270;6.522;2024-02-26T12:47:40;11.75;;;9.90;;
28762;SDS011;15918;51.270;6.522;2024-02-26T12:50:10;11.45;;;10.10;;
28762;SDS011;15918;51.270;6.522;2024-02-26T12:52:39;12.45;;;9.98;;
28762;SDS011;15918;51.270;6.522;2024-02-26T12:55:07;11.48;;;10.38;;
28762;SDS011;15918;51.270;6.522;2024-02-26T12:57:35;13.32;;;10.55;;
28762;SDS011;15918;51.270;6.522;2024-02-26T13:00:04;12.30;;;10.73;;
28762;SDS011;15918;51.270;6.522;2024-02-26T13:02:31;12.52;;;9.90;;
28762;SDS011;15918;51.270;6.522;2024-02-26T13:04:59;10.55;;;9.45;;
28762;SDS011;15918;51.270;6.522;2024-02-26T13:07:26;11.13;;;10.02;;
28762;SDS011;15918;51.270;6.522;2024-02-26T13:09:52;13.02;;;10.45;;
28762;SDS011;15918;51.270;6.522;2024-02-26T13:12:18;10.82;;;9.82;;
28762;SDS011;15918;51.270;6.522;2024-02-26T13:14:44;11.07;;;9.98;;
28762;SDS011;15918;51.270;6.522;2024-02-26T13:17:09;11.60;;;10.40;;
28762;SDS011;15918;51.270;6.522;2024-02-26T13:19:35;12.07;;;10.73;;
28762;SDS011;15918;51.270;6.522;2024-02-26T13:22:04;12.05;;;10.80;;
28762;SDS011;15918;51.270;6.522;2024-02-26T13:24:31;12.30;;;11.15;;
28762;SDS011;15918;51.270;6.522;2024-02-26T13:26:57;13.77;;;11.50;;
28762;SDS011;15918;51.270;6.522;2024-02-26T13:29:23;14.65;;;11.35;;
28762;SDS011;15918;51.270;6.522;2024-02-26T13:31:55;12.35;;;11.15;;
28762;SDS011;15918;51.270;6.522;2024-02-26T13:34:23;13.48;;;12.02;;
28762;SDS011;15918;51.270;6.522;2024-02-26T13:36:52;13.43;;;12.02;;
28762;SDS011;15918;51.270;6.522;2024-02-26T13:39:26;12.82;;;11.48;;
28762;SDS011;15918;51.270;6.522;2024-02-26T13:41:52;13.25;;;11.85;;
28762;SDS011;15918;51.270;6.522;2024-02-26T13:44:21;12.52;;;11.27;;
28762;SDS011;15918;51.270;6.522;2024-02-26T13:46:48;12.43;;;11.10;;
28762;SDS011;15918;51.270;6.522;2024-02-26T13:49:17;16.80;;;11.07;;
28762;SDS011;15918;51.270;6.522;2024-02-26T13:51:42;13.10;;;11.70;;
28762;SDS011;15918;51.270;6.522;2024-02-26T13:54:08;13.88;;;11.88;;
28762;SDS011;15918;51.270;6.522;2024-02-26T13:56:37;12.07;;;10.88;;
28762;SDS011;15918;51.270;6.522;2024-02-26T13:59:03;13.23;;;11.48;;
28762;SDS011;15918;51.270;6.522;2024-02-26T14:01:29;12.77;;;10.98;;
28762;SDS011;15918;51.270;6.522;2024-02-26T14:03:58;12.48;;;10.55;;
28762;SDS011;15918;51.270;6.522;2024-02-26T14:06:23;12.85;;;11.55;;
28762;SDS011;15918;51.270;6.522;2024-02-26T14:08:49;13.35;;;11.32;;
28762;SDS011;15918;51.270;6.522;2024-02-26T14:11:14;12.48;;;11.23;;
28762;SDS011;15918;51.270;6.522;2024-02-26T14:13:40;11.65;;;10.50;;
28762;SDS011;15918;51.270;6.522;2024-02-26T14:16:06;12.43;;;10.55;;
28762;SDS011;15918;51.270;6.522;2024-02-26T14:18:31;11.93;;;10.73;;
28762;SDS011;15918;51.270;6.522;2024-02-26T14:20:57;12.52;;;10.18;;
28762;SDS011;15918;51.270;6.522;2024-02-26T14:23:23;13.25;;;10.75;;
28762;SDS011;15918;51.270;6.522;2024-02-26T14:25:48;11.35;;;10.18;;
28762;SDS011;15918;51.270;6.522;2024-02-26T14:28:14;11.35;;;10.13;;
28762;SDS011;15918;51.270;6.522;2024-02-26T14:30:39;12.00;;;9.82;;
28762;SDS011;15918;51.270;6.522;2024-02-26T14:33:05;11.35;;;10.20;;
28762;SDS011;15918;51.270;6.522;2024-02-26T14:35:30;11.38;;;10.23;;
28762;SDS011;15918;51.270;6.522;2024-02-26T14:37:56;10.10;;;9.18;;
28762;SDS011;15918;51.270;6.522;2024-02-26T14:40:25;10.75;;;9.63;;
28762;SDS011;15918;51.270;6.522;2024-02-26T14:42:51;10.60;;;9.57;;
28762;SDS011;15918;51.270;6.522;2024-02-26T14:45:17;10.20;;;9.20;;
28762;SDS011;15918;51.270;6.522;2024-02-26T14:47:42;9.82;;;8.80;;
28762;SDS011;15918;51.270;6.522;2024-02-26T14:50:08;9.05;;;8.23;;